Graham, Florida
Current Conditions -  °F | °C
As of 7:35 AM on Thursday 25 Dec 2014 (Local Time) from K42J Reporting Station
Overcast Overcast  
Wind Chill: 54°   Ceiling: 9500
Heat Index: 54°   Visibility: 10mi
Dew Point: 48°   Wind: 7mph
Humidity: 82%   Direction: 330°NNW
Pressure: 30.14"   Gusts: NA
Location:  29.86°N, 82.22°W
Report Text: K42J 251235Z AUTO 33006KT 10SM OVC095 12/09 A3014 RMK AO1 TSNO
Loading
Personal Weather Stations






























Interactive Weather Map New forecast layout! Learn more

10-Day Weather Forecast

Advertisements
Track Severe Weather on mobile